Lagrange, ME (04453)

8:13 PM EDT on July 23, 2016 (GMT -0400)
Main St. Milo | | Change Station

Elev 300 ft 45.25 °N, 68.99 °W | Updated 19 seconds ago

Scattered Clouds
Scattered Clouds
73.6 °F
Feels Like 75 °F
N
1.3
Wind Variable Wind from NW
Gusts 2.5 mph

Today
High -- | Low -- °F
--% Chance of Precip.
Yesterday
High -- | Low -- °F
Precip. -- in
Pressure 29.69 in
Visibility 10.0 miles
Clouds Few 16000 ft
Scattered Clouds 20000 ft
Heat Index 75 °F
Dew Point 64 °F
Humidity 72%
Rainfall 0.11 in
Snow Depth Not available.
5:10 AM 8:12 PM
Waning Gibbous, 81% visible
METAR KBGR 232353Z 29006KT 10SM FEW160 SCT200 24/18 A2970 RMK AO2 SLP054 60001 T02440183 10328 20233 58004
Pressure 29.69 in
Visibility 10.0 miles
Clouds Few 16000 ft
Scattered Clouds 20000 ft
Heat Index 75 °F
Dew Point 64 °F
Humidity 72%
Rainfall 0.11 in
Snow Depth Not available.
5:10 AM 8:12 PM
Waning Gibbous, 81% visible
METAR KBGR 232353Z 29006KT 10SM FEW160 SCT200 24/18 A2970 RMK AO2 SLP054 60001 T02440183 10328 20233 58004

10-Day Weather Forecast

Almanac

Astronomy

Jul. 23, 2016 Rise Set
Actual Time
Civil Twilight
Nautical Twilight
Astronomical Twilight
Moon
Length of Visible Light
Length of Day
Tomorrow will be .
, % of the Moon is Illuminated

Today's Extremes

State Highs State Lows

Community

WunderPhotos

Upload Photos

1,926,979 photos uploaded!

WunderBlog® & News

Nearby

Air Quality

  Air Quality AQ Index Pollutant
Not available.

Snow Depth

Station Depth Elevation

Earthquake Activity

City Distance Mag. Time & Date
Minimum magnitude displayed is 2.5.

Coastal Water Temperatures

Place Temperature

Stations

Nearby Weather Stations

Station Location Temp. Windchill Dew Point Humidity Wind Precip. Elev Updated Type
                   

Watches & Warnings

There are currently no watches in effect.